sensor_id;sensor_type;location;lat;lon;timestamp;P1;durP1;ratioP1;P2;durP2;ratioP2
5167;SDS011;2603;48.918;8.980;2024-01-06T00:01:02;19.70;;;9.63;;
5167;SDS011;2603;48.918;8.980;2024-01-06T00:03:30;16.47;;;9.73;;
5167;SDS011;2603;48.918;8.980;2024-01-06T00:05:57;20.77;;;9.97;;
5167;SDS011;2603;48.918;8.980;2024-01-06T00:08:25;20.97;;;9.40;;
5167;SDS011;2603;48.918;8.980;2024-01-06T00:10:51;19.73;;;8.80;;
5167;SDS011;2603;48.918;8.980;2024-01-06T00:13:17;19.73;;;9.27;;
5167;SDS011;2603;48.918;8.980;2024-01-06T00:15:44;20.07;;;8.80;;
5167;SDS011;2603;48.918;8.980;2024-01-06T00:18:10;19.90;;;8.30;;
5167;SDS011;2603;48.918;8.980;2024-01-06T00:20:38;21.37;;;11.00;;
5167;SDS011;2603;48.918;8.980;2024-01-06T00:23:05;29.53;;;12.30;;
5167;SDS011;2603;48.918;8.980;2024-01-06T00:25:31;29.10;;;14.13;;
5167;SDS011;2603;48.918;8.980;2024-01-06T00:27:58;33.73;;;13.17;;
5167;SDS011;2603;48.918;8.980;2024-01-06T00:30:24;33.50;;;14.90;;
5167;SDS011;2603;48.918;8.980;2024-01-06T00:32:50;36.77;;;15.20;;
5167;SDS011;2603;48.918;8.980;2024-01-06T00:35:17;20.33;;;10.10;;
5167;SDS011;2603;48.918;8.980;2024-01-06T00:37:45;21.13;;;9.70;;
5167;SDS011;2603;48.918;8.980;2024-01-06T00:40:12;19.10;;;8.90;;
5167;SDS011;2603;48.918;8.980;2024-01-06T00:42:39;18.87;;;9.20;;
5167;SDS011;2603;48.918;8.980;2024-01-06T00:45:06;21.93;;;10.20;;
5167;SDS011;2603;48.918;8.980;2024-01-06T00:47:33;16.33;;;9.60;;
5167;SDS011;2603;48.918;8.980;2024-01-06T00:49:59;19.97;;;9.47;;
5167;SDS011;2603;48.918;8.980;2024-01-06T00:52:26;22.07;;;9.17;;
5167;SDS011;2603;48.918;8.980;2024-01-06T00:54:53;24.60;;;10.47;;
5167;SDS011;2603;48.918;8.980;2024-01-06T00:57:20;29.43;;;12.03;;
5167;SDS011;2603;48.918;8.980;2024-01-06T00:59:49;18.40;;;9.30;;
5167;SDS011;2603;48.918;8.980;2024-01-06T01:02:15;19.40;;;9.50;;
5167;SDS011;2603;48.918;8.980;2024-01-06T01:04:42;19.57;;;9.80;;
5167;SDS011;2603;48.918;8.980;2024-01-06T01:07:08;23.33;;;10.43;;
5167;SDS011;2603;48.918;8.980;2024-01-06T01:09:35;21.73;;;9.50;;
5167;SDS011;2603;48.918;8.980;2024-01-06T01:12:03;19.77;;;10.07;;
5167;SDS011;2603;48.918;8.980;2024-01-06T01:14:29;20.77;;;9.43;;
5167;SDS011;2603;48.918;8.980;2024-01-06T01:16:56;25.37;;;9.87;;
5167;SDS011;2603;48.918;8.980;2024-01-06T01:19:22;17.67;;;8.93;;
5167;SDS011;2603;48.918;8.980;2024-01-06T01:21:49;14.50;;;8.73;;
5167;SDS011;2603;48.918;8.980;2024-01-06T01:24:18;22.90;;;7.80;;
5167;SDS011;2603;48.918;8.980;2024-01-06T01:26:45;15.07;;;7.60;;
5167;SDS011;2603;48.918;8.980;2024-01-06T01:29:13;23.90;;;6.90;;
5167;SDS011;2603;48.918;8.980;2024-01-06T01:31:39;13.90;;;6.73;;
5167;SDS011;2603;48.918;8.980;2024-01-06T01:34:05;17.80;;;8.50;;
5167;SDS011;2603;48.918;8.980;2024-01-06T01:36:32;17.40;;;7.20;;
5167;SDS011;2603;48.918;8.980;2024-01-06T01:38:58;17.40;;;7.23;;
5167;SDS011;2603;48.918;8.980;2024-01-06T01:41:25;17.10;;;7.30;;
5167;SDS011;2603;48.918;8.980;2024-01-06T01:43:51;11.93;;;6.60;;
5167;SDS011;2603;48.918;8.980;2024-01-06T01:46:25;15.33;;;6.30;;
5167;SDS011;2603;48.918;8.980;2024-01-06T01:48:52;17.53;;;5.97;;
5167;SDS011;2603;48.918;8.980;2024-01-06T01:51:18;12.80;;;6.40;;
5167;SDS011;2603;48.918;8.980;2024-01-06T01:53:46;11.57;;;5.80;;
5167;SDS011;2603;48.918;8.980;2024-01-06T01:56:12;14.37;;;6.60;;
5167;SDS011;2603;48.918;8.980;2024-01-06T01:58:39;13.70;;;6.50;;
5167;SDS011;2603;48.918;8.980;2024-01-06T02:01:06;12.77;;;5.93;;
5167;SDS011;2603;48.918;8.980;2024-01-06T02:03:35;15.80;;;6.57;;
5167;SDS011;2603;48.918;8.980;2024-01-06T02:06:01;15.30;;;7.20;;
5167;SDS011;2603;48.918;8.980;2024-01-06T02:08:28;16.30;;;5.70;;
5167;SDS011;2603;48.918;8.980;2024-01-06T02:10:55;15.07;;;6.83;;
5167;SDS011;2603;48.918;8.980;2024-01-06T02:13:22;17.30;;;7.87;;
5167;SDS011;2603;48.918;8.980;2024-01-06T02:15:49;10.83;;;6.57;;
5167;SDS011;2603;48.918;8.980;2024-01-06T02:18:15;17.23;;;7.63;;
5167;SDS011;2603;48.918;8.980;2024-01-06T02:20:43;15.63;;;8.30;;
5167;SDS011;2603;48.918;8.980;2024-01-06T02:23:11;14.43;;;7.03;;
5167;SDS011;2603;48.918;8.980;2024-01-06T02:25:38;8.93;;;2.93;;
5167;SDS011;2603;48.918;8.980;2024-01-06T02:28:05;5.90;;;1.87;;
5167;SDS011;2603;48.918;8.980;2024-01-06T02:30:31;9.67;;;2.60;;
5167;SDS011;2603;48.918;8.980;2024-01-06T02:32:58;9.00;;;4.03;;
5167;SDS011;2603;48.918;8.980;2024-01-06T02:35:24;9.93;;;4.77;;
5167;SDS011;2603;48.918;8.980;2024-01-06T02:37:51;6.23;;;2.13;;
5167;SDS011;2603;48.918;8.980;2024-01-06T02:40:18;10.37;;;2.80;;
5167;SDS011;2603;48.918;8.980;2024-01-06T02:42:45;3.27;;;1.97;;
5167;SDS011;2603;48.918;8.980;2024-01-06T02:45:11;4.10;;;1.90;;
5167;SDS011;2603;48.918;8.980;2024-01-06T02:47:38;7.30;;;2.00;;
5167;SDS011;2603;48.918;8.980;2024-01-06T02:50:05;4.20;;;2.43;;
5167;SDS011;2603;48.918;8.980;2024-01-06T02:52:32;4.80;;;2.40;;
5167;SDS011;2603;48.918;8.980;2024-01-06T02:54:58;6.33;;;1.57;;
5167;SDS011;2603;48.918;8.980;2024-01-06T02:57:27;4.97;;;1.63;;
5167;SDS011;2603;48.918;8.980;2024-01-06T02:59:53;4.33;;;1.33;;
5167;SDS011;2603;48.918;8.980;2024-01-06T03:02:20;7.00;;;1.70;;
5167;SDS011;2603;48.918;8.980;2024-01-06T03:04:46;5.87;;;2.17;;
5167;SDS011;2603;48.918;8.980;2024-01-06T03:07:13;9.63;;;2.80;;
5167;SDS011;2603;48.918;8.980;2024-01-06T03:09:39;6.50;;;2.07;;
5167;SDS011;2603;48.918;8.980;2024-01-06T03:12:06;5.40;;;2.80;;
5167;SDS011;2603;48.918;8.980;2024-01-06T03:14:35;6.43;;;1.87;;
5167;SDS011;2603;48.918;8.980;2024-01-06T03:17:02;9.07;;;1.70;;
5167;SDS011;2603;48.918;8.980;2024-01-06T03:19:29;5.03;;;2.17;;
5167;SDS011;2603;48.918;8.980;2024-01-06T03:21:55;5.13;;;1.60;;
5167;SDS011;2603;48.918;8.980;2024-01-06T03:24:22;4.90;;;1.80;;
5167;SDS011;2603;48.918;8.980;2024-01-06T03:26:50;8.37;;;2.93;;
5167;SDS011;2603;48.918;8.980;2024-01-06T03:29:16;7.53;;;2.93;;
5167;SDS011;2603;48.918;8.980;2024-01-06T03:31:44;4.80;;;3.17;;
5167;SDS011;2603;48.918;8.980;2024-01-06T03:34:12;12.20;;;3.50;;
5167;SDS011;2603;48.918;8.980;2024-01-06T03:36:38;6.07;;;2.77;;
5167;SDS011;2603;48.918;8.980;2024-01-06T03:39:05;8.20;;;3.17;;
5167;SDS011;2603;48.918;8.980;2024-01-06T03:41:32;12.20;;;3.13;;
5167;SDS011;2603;48.918;8.980;2024-01-06T03:43:59;5.27;;;2.73;;
5167;SDS011;2603;48.918;8.980;2024-01-06T03:46:25;6.87;;;2.70;;
5167;SDS011;2603;48.918;8.980;2024-01-06T03:48:53;6.70;;;2.53;;
5167;SDS011;2603;48.918;8.980;2024-01-06T03:51:20;6.40;;;2.50;;
5167;SDS011;2603;48.918;8.980;2024-01-06T03:53:47;6.50;;;1.97;;
5167;SDS011;2603;48.918;8.980;2024-01-06T03:56:13;8.03;;;2.03;;
5167;SDS011;2603;48.918;8.980;2024-01-06T03:58:40;2.97;;;1.70;;
5167;SDS011;2603;48.918;8.980;2024-01-06T04:01:06;6.97;;;1.60;;
5167;SDS011;2603;48.918;8.980;2024-01-06T04:03:33;5.40;;;1.50;;
5167;SDS011;2603;48.918;8.980;2024-01-06T04:06:01;8.17;;;1.70;;
5167;SDS011;2603;48.918;8.980;2024-01-06T04:08:28;6.67;;;1.70;;
5167;SDS011;2603;48.918;8.980;2024-01-06T04:10:54;8.47;;;2.40;;
5167;SDS011;2603;48.918;8.980;2024-01-06T04:13:21;6.97;;;1.30;;
5167;SDS011;2603;48.918;8.980;2024-01-06T04:15:49;7.57;;;2.23;;
5167;SDS011;2603;48.918;8.980;2024-01-06T04:18:16;4.30;;;1.50;;
5167;SDS011;2603;48.918;8.980;2024-01-06T04:20:42;6.80;;;1.87;;
5167;SDS011;2603;48.918;8.980;2024-01-06T04:23:10;2.80;;;1.30;;
5167;SDS011;2603;48.918;8.980;2024-01-06T04:25:37;4.33;;;1.57;;
5167;SDS011;2603;48.918;8.980;2024-01-06T04:28:04;10.00;;;1.80;;
5167;SDS011;2603;48.918;8.980;2024-01-06T04:30:30;11.97;;;1.93;;
5167;SDS011;2603;48.918;8.980;2024-01-06T04:32:57;3.63;;;1.40;;
5167;SDS011;2603;48.918;8.980;2024-01-06T04:35:24;10.10;;;1.67;;
5167;SDS011;2603;48.918;8.980;2024-01-06T04:37:51;3.83;;;1.60;;
5167;SDS011;2603;48.918;8.980;2024-01-06T04:40:19;7.00;;;1.93;;
5167;SDS011;2603;48.918;8.980;2024-01-06T04:42:45;9.93;;;2.43;;
5167;SDS011;2603;48.918;8.980;2024-01-06T04:45:12;10.00;;;3.10;;
5167;SDS011;2603;48.918;8.980;2024-01-06T04:47:38;15.57;;;2.10;;
5167;SDS011;2603;48.918;8.980;2024-01-06T04:50:05;6.13;;;2.70;;
5167;SDS011;2603;48.918;8.980;2024-01-06T04:52:32;6.80;;;2.20;;
5167;SDS011;2603;48.918;8.980;2024-01-06T04:54:59;9.03;;;1.87;;
5167;SDS011;2603;48.918;8.980;2024-01-06T04:57:28;4.83;;;1.90;;
5167;SDS011;2603;48.918;8.980;2024-01-06T04:59:54;2.67;;;1.70;;
5167;SDS011;2603;48.918;8.980;2024-01-06T05:02:21;6.43;;;2.20;;
5167;SDS011;2603;48.918;8.980;2024-01-06T05:04:47;11.97;;;2.17;;
5167;SDS011;2603;48.918;8.980;2024-01-06T05:07:14;22.07;;;2.20;;
5167;SDS011;2603;48.918;8.980;2024-01-06T05:09:40;5.83;;;2.07;;
5167;SDS011;2603;48.918;8.980;2024-01-06T05:12:07;5.97;;;1.90;;
5167;SDS011;2603;48.918;8.980;2024-01-06T05:14:35;6.20;;;2.20;;
5167;SDS011;2603;48.918;8.980;2024-01-06T05:17:02;10.03;;;2.30;;
5167;SDS011;2603;48.918;8.980;2024-01-06T05:19:29;9.43;;;2.30;;
5167;SDS011;2603;48.918;8.980;2024-01-06T05:21:55;8.37;;;2.00;;
5167;SDS011;2603;48.918;8.980;2024-01-06T05:24:22;13.83;;;1.73;;
5167;SDS011;2603;48.918;8.980;2024-01-06T05:26:48;6.33;;;2.30;;
5167;SDS011;2603;48.918;8.980;2024-01-06T05:29:15;5.53;;;2.23;;
5167;SDS011;2603;48.918;8.980;2024-01-06T05:31:43;6.27;;;2.23;;
5167;SDS011;2603;48.918;8.980;2024-01-06T05:34:11;8.73;;;2.40;;
5167;SDS011;2603;48.918;8.980;2024-01-06T05:36:37;5.43;;;2.77;;
5167;SDS011;2603;48.918;8.980;2024-01-06T05:39:04;5.73;;;1.93;;
5167;SDS011;2603;48.918;8.980;2024-01-06T05:41:36;9.00;;;3.23;;
5167;SDS011;2603;48.918;8.980;2024-01-06T05:44:03;8.60;;;2.87;;
5167;SDS011;2603;48.918;8.980;2024-01-06T05:46:30;6.63;;;2.73;;
5167;SDS011;2603;48.918;8.980;2024-01-06T05:48:58;9.63;;;2.10;;
5167;SDS011;2603;48.918;8.980;2024-01-06T05:51:25;9.10;;;2.73;;
5167;SDS011;2603;48.918;8.980;2024-01-06T05:53:51;3.70;;;1.93;;
5167;SDS011;2603;48.918;8.980;2024-01-06T05:56:24;5.40;;;2.03;;
5167;SDS011;2603;48.918;8.980;2024-01-06T05:58:51;4.43;;;2.30;;
5167;SDS011;2603;48.918;8.980;2024-01-06T06:01:18;6.43;;;2.27;;
5167;SDS011;2603;48.918;8.980;2024-01-06T06:03:45;11.77;;;2.47;;
5167;SDS011;2603;48.918;8.980;2024-01-06T06:06:13;8.90;;;4.00;;
5167;SDS011;2603;48.918;8.980;2024-01-06T06:08:40;7.37;;;2.70;;
5167;SDS011;2603;48.918;8.980;2024-01-06T06:11:07;6.40;;;2.40;;
5167;SDS011;2603;48.918;8.980;2024-01-06T06:13:36;12.07;;;3.67;;
5167;SDS011;2603;48.918;8.980;2024-01-06T06:16:04;7.87;;;3.70;;
5167;SDS011;2603;48.918;8.980;2024-01-06T06:18:30;6.80;;;2.70;;
5167;SDS011;2603;48.918;8.980;2024-01-06T06:20:58;11.23;;;3.10;;
5167;SDS011;2603;48.918;8.980;2024-01-06T06:23:25;13.90;;;3.07;;
5167;SDS011;2603;48.918;8.980;2024-01-06T06:25:52;4.53;;;2.70;;
5167;SDS011;2603;48.918;8.980;2024-01-06T06:28:19;6.00;;;2.70;;
5167;SDS011;2603;48.918;8.980;2024-01-06T06:30:45;7.17;;;3.03;;
5167;SDS011;2603;48.918;8.980;2024-01-06T06:33:12;5.17;;;2.60;;
5167;SDS011;2603;48.918;8.980;2024-01-06T06:35:39;9.80;;;2.67;;
5167;SDS011;2603;48.918;8.980;2024-01-06T06:38:05;5.90;;;2.67;;
5167;SDS011;2603;48.918;8.980;2024-01-06T06:40:33;3.03;;;1.73;;
5167;SDS011;2603;48.918;8.980;2024-01-06T06:43:00;9.60;;;3.70;;
5167;SDS011;2603;48.918;8.980;2024-01-06T06:45:26;6.25;;;2.50;;
5167;SDS011;2603;48.918;8.980;2024-01-06T06:47:53;5.17;;;2.20;;
5167;SDS011;2603;48.918;8.980;2024-01-06T06:50:19;12.63;;;2.60;;
5167;SDS011;2603;48.918;8.980;2024-01-06T06:52:46;3.23;;;2.07;;
5167;SDS011;2603;48.918;8.980;2024-01-06T06:55:13;4.33;;;1.70;;
5167;SDS011;2603;48.918;8.980;2024-01-06T06:57:41;4.40;;;2.23;;
5167;SDS011;2603;48.918;8.980;2024-01-06T07:00:08;3.80;;;2.40;;
5167;SDS011;2603;48.918;8.980;2024-01-06T07:02:34;4.03;;;2.10;;
5167;SDS011;2603;48.918;8.980;2024-01-06T07:05:02;3.53;;;1.50;;
5167;SDS011;2603;48.918;8.980;2024-01-06T07:07:31;8.30;;;1.50;;
5167;SDS011;2603;48.918;8.980;2024-01-06T07:09:58;3.93;;;1.70;;
5167;SDS011;2603;48.918;8.980;2024-01-06T07:12:25;7.30;;;2.10;;
5167;SDS011;2603;48.918;8.980;2024-01-06T07:14:53;3.03;;;1.90;;
5167;SDS011;2603;48.918;8.980;2024-01-06T07:17:20;4.37;;;1.90;;
5167;SDS011;2603;48.918;8.980;2024-01-06T07:19:46;4.50;;;2.47;;
5167;SDS011;2603;48.918;8.980;2024-01-06T07:22:13;4.00;;;2.00;;
5167;SDS011;2603;48.918;8.980;2024-01-06T07:24:41;2.50;;;1.70;;
5167;SDS011;2603;48.918;8.980;2024-01-06T07:27:08;4.30;;;2.43;;
5167;SDS011;2603;48.918;8.980;2024-01-06T07:29:34;2.70;;;1.67;;
5167;SDS011;2603;48.918;8.980;2024-01-06T07:32:02;4.80;;;2.40;;
5167;SDS011;2603;48.918;8.980;2024-01-06T07:34:30;5.40;;;1.97;;
5167;SDS011;2603;48.918;8.980;2024-01-06T07:36:57;4.57;;;2.43;;
5167;SDS011;2603;48.918;8.980;2024-01-06T07:39:23;10.67;;;2.73;;
5167;SDS011;2603;48.918;8.980;2024-01-06T07:41:50;6.97;;;2.10;;
5167;SDS011;2603;48.918;8.980;2024-01-06T07:44:17;9.07;;;2.03;;
5167;SDS011;2603;48.918;8.980;2024-01-06T07:46:47;3.30;;;2.00;;
5167;SDS011;2603;48.918;8.980;2024-01-06T07:49:15;6.03;;;2.10;;
5167;SDS011;2603;48.918;8.980;2024-01-06T07:51:42;7.20;;;2.20;;
5167;SDS011;2603;48.918;8.980;2024-01-06T07:54:08;3.60;;;2.07;;
5167;SDS011;2603;48.918;8.980;2024-01-06T07:56:36;3.73;;;1.83;;
5167;SDS011;2603;48.918;8.980;2024-01-06T07:59:03;7.30;;;3.87;;
5167;SDS011;2603;48.918;8.980;2024-01-06T08:01:29;11.47;;;4.90;;
5167;SDS011;2603;48.918;8.980;2024-01-06T08:03:56;19.77;;;6.13;;
5167;SDS011;2603;48.918;8.980;2024-01-06T08:06:25;15.80;;;5.57;;
5167;SDS011;2603;48.918;8.980;2024-01-06T08:08:52;17.03;;;4.37;;
5167;SDS011;2603;48.918;8.980;2024-01-06T08:11:19;10.83;;;3.17;;
5167;SDS011;2603;48.918;8.980;2024-01-06T08:13:46;13.93;;;2.87;;
5167;SDS011;2603;48.918;8.980;2024-01-06T08:16:13;8.40;;;3.40;;
5167;SDS011;2603;48.918;8.980;2024-01-06T08:18:39;12.33;;;3.00;;
5167;SDS011;2603;48.918;8.980;2024-01-06T08:21:06;7.57;;;3.50;;
5167;SDS011;2603;48.918;8.980;2024-01-06T08:23:34;19.40;;;6.53;;
5167;SDS011;2603;48.918;8.980;2024-01-06T08:26:00;31.97;;;8.83;;
5167;SDS011;2603;48.918;8.980;2024-01-06T08:28:27;77.97;;;22.53;;
5167;SDS011;2603;48.918;8.980;2024-01-06T08:30:53;24.70;;;7.83;;
5167;SDS011;2603;48.918;8.980;2024-01-06T08:33:20;12.73;;;4.20;;
5167;SDS011;2603;48.918;8.980;2024-01-06T08:35:46;7.60;;;3.00;;
5167;SDS011;2603;48.918;8.980;2024-01-06T08:38:13;17.07;;;10.10;;
5167;SDS011;2603;48.918;8.980;2024-01-06T08:40:41;5.43;;;2.93;;
5167;SDS011;2603;48.918;8.980;2024-01-06T08:43:09;16.53;;;5.20;;
5167;SDS011;2603;48.918;8.980;2024-01-06T08:45:35;10.23;;;4.27;;
5167;SDS011;2603;48.918;8.980;2024-01-06T08:48:02;5.37;;;3.20;;
5167;SDS011;2603;48.918;8.980;2024-01-06T08:50:29;9.00;;;3.10;;
5167;SDS011;2603;48.918;8.980;2024-01-06T08:52:55;4.93;;;2.03;;
5167;SDS011;2603;48.918;8.980;2024-01-06T08:55:22;6.40;;;2.50;;
5167;SDS011;2603;48.918;8.980;2024-01-06T08:57:50;4.77;;;1.90;;
5167;SDS011;2603;48.918;8.980;2024-01-06T09:00:16;6.20;;;2.70;;
5167;SDS011;2603;48.918;8.980;2024-01-06T09:02:43;5.10;;;2.70;;
5167;SDS011;2603;48.918;8.980;2024-01-06T09:05:10;6.90;;;2.07;;
5167;SDS011;2603;48.918;8.980;2024-01-06T09:07:36;7.47;;;2.30;;
5167;SDS011;2603;48.918;8.980;2024-01-06T09:10:03;3.87;;;1.83;;
5167;SDS011;2603;48.918;8.980;2024-01-06T09:12:30;2.70;;;1.80;;
5167;SDS011;2603;48.918;8.980;2024-01-06T09:14:58;11.60;;;2.53;;
5167;SDS011;2603;48.918;8.980;2024-01-06T09:17:24;2.93;;;1.80;;
5167;SDS011;2603;48.918;8.980;2024-01-06T09:19:51;3.93;;;1.83;;
5167;SDS011;2603;48.918;8.980;2024-01-06T09:22:19;3.23;;;2.00;;
5167;SDS011;2603;48.918;8.980;2024-01-06T09:24:45;5.60;;;2.13;;
5167;SDS011;2603;48.918;8.980;2024-01-06T09:27:12;3.70;;;1.90;;
5167;SDS011;2603;48.918;8.980;2024-01-06T09:29:40;4.70;;;1.90;;
5167;SDS011;2603;48.918;8.980;2024-01-06T09:32:08;4.30;;;2.43;;
5167;SDS011;2603;48.918;8.980;2024-01-06T09:34:34;6.40;;;2.20;;
5167;SDS011;2603;48.918;8.980;2024-01-06T09:37:01;16.30;;;2.60;;
5167;SDS011;2603;48.918;8.980;2024-01-06T09:39:27;13.50;;;2.60;;
5167;SDS011;2603;48.918;8.980;2024-01-06T09:41:56;5.97;;;2.43;;
5167;SDS011;2603;48.918;8.980;2024-01-06T09:44:22;3.53;;;2.40;;
5167;SDS011;2603;48.918;8.980;2024-01-06T09:46:49;5.07;;;1.93;;
5167;SDS011;2603;48.918;8.980;2024-01-06T09:49:17;3.20;;;2.10;;
5167;SDS011;2603;48.918;8.980;2024-01-06T09:51:48;3.60;;;2.47;;
5167;SDS011;2603;48.918;8.980;2024-01-06T09:54:16;3.40;;;1.90;;
5167;SDS011;2603;48.918;8.980;2024-01-06T09:56:48;5.90;;;3.17;;
5167;SDS011;2603;48.918;8.980;2024-01-06T09:59:15;3.37;;;2.03;;
5167;SDS011;2603;48.918;8.980;2024-01-06T10:01:44;10.33;;;3.30;;
5167;SDS011;2603;48.918;8.980;2024-01-06T10:04:11;3.40;;;1.90;;
5167;SDS011;2603;48.918;8.980;2024-01-06T10:06:38;4.23;;;2.53;;
5167;SDS011;2603;48.918;8.980;2024-01-06T10:09:05;4.40;;;2.60;;
5167;SDS011;2603;48.918;8.980;2024-01-06T10:11:32;2.60;;;2.07;;
5167;SDS011;2603;48.918;8.980;2024-01-06T10:14:02;16.93;;;2.70;;
5167;SDS011;2603;48.918;8.980;2024-01-06T10:16:29;6.37;;;2.93;;
5167;SDS011;2603;48.918;8.980;2024-01-06T10:18:56;7.40;;;2.63;;
5167;SDS011;2603;48.918;8.980;2024-01-06T10:21:22;12.67;;;5.33;;
5167;SDS011;2603;48.918;8.980;2024-01-06T10:23:52;6.00;;;2.80;;
5167;SDS011;2603;48.918;8.980;2024-01-06T10:26:20;5.10;;;2.60;;
5167;SDS011;2603;48.918;8.980;2024-01-06T10:28:47;8.37;;;3.00;;
5167;SDS011;2603;48.918;8.980;2024-01-06T10:31:14;4.70;;;2.87;;
5167;SDS011;2603;48.918;8.980;2024-01-06T10:33:41;4.03;;;2.50;;
5167;SDS011;2603;48.918;8.980;2024-01-06T10:36:09;6.47;;;2.90;;
5167;SDS011;2603;48.918;8.980;2024-01-06T10:38:35;4.33;;;2.70;;
5167;SDS011;2603;48.918;8.980;2024-01-06T10:41:04;7.90;;;2.53;;
5167;SDS011;2603;48.918;8.980;2024-01-06T10:43:32;5.63;;;2.43;;
5167;SDS011;2603;48.918;8.980;2024-01-06T10:46:01;4.80;;;3.40;;
5167;SDS011;2603;48.918;8.980;2024-01-06T10:48:30;4.00;;;2.60;;
5167;SDS011;2603;48.918;8.980;2024-01-06T10:50:57;7.70;;;3.37;;
5167;SDS011;2603;48.918;8.980;2024-01-06T10:53:25;5.00;;;2.73;;
5167;SDS011;2603;48.918;8.980;2024-01-06T10:55:52;4.77;;;3.60;;
5167;SDS011;2603;48.918;8.980;2024-01-06T10:58:20;6.60;;;2.87;;
5167;SDS011;2603;48.918;8.980;2024-01-06T11:00:47;4.67;;;2.70;;
5167;SDS011;2603;48.918;8.980;2024-01-06T11:03:14;3.20;;;2.33;;
5167;SDS011;2603;48.918;8.980;2024-01-06T11:05:41;6.07;;;3.13;;
5167;SDS011;2603;48.918;8.980;2024-01-06T11:08:08;5.17;;;2.87;;
5167;SDS011;2603;48.918;8.980;2024-01-06T11:10:35;6.33;;;2.70;;
5167;SDS011;2603;48.918;8.980;2024-01-06T11:13:06;6.33;;;3.20;;
5167;SDS011;2603;48.918;8.980;2024-01-06T11:15:44;4.30;;;3.03;;
5167;SDS011;2603;48.918;8.980;2024-01-06T11:18:30;6.10;;;3.33;;
5167;SDS011;2603;48.918;8.980;2024-01-06T11:26:44;5.43;;;3.50;;
5167;SDS011;2603;48.918;8.980;2024-01-06T11:29:11;5.87;;;3.53;;
5167;SDS011;2603;48.918;8.980;2024-01-06T11:31:39;4.90;;;3.43;;
5167;SDS011;2603;48.918;8.980;2024-01-06T11:34:12;8.10;;;3.60;;
5167;SDS011;2603;48.918;8.980;2024-01-06T11:36:39;6.67;;;3.60;;
5167;SDS011;2603;48.918;8.980;2024-01-06T11:39:05;7.07;;;3.80;;
5167;SDS011;2603;48.918;8.980;2024-01-06T11:44:18;3.60;;;2.33;;
5167;SDS011;2603;48.918;8.980;2024-01-06T11:46:46;7.00;;;3.43;;
5167;SDS011;2603;48.918;8.980;2024-01-06T11:49:14;5.10;;;2.63;;
5167;SDS011;2603;48.918;8.980;2024-01-06T11:51:41;4.00;;;2.43;;
5167;SDS011;2603;48.918;8.980;2024-01-06T11:54:08;6.30;;;3.17;;
5167;SDS011;2603;48.918;8.980;2024-01-06T11:56:35;3.73;;;2.63;;
5167;SDS011;2603;48.918;8.980;2024-01-06T11:59:01;9.53;;;2.87;;
5167;SDS011;2603;48.918;8.980;2024-01-06T12:01:33;4.50;;;3.53;;
5167;SDS011;2603;48.918;8.980;2024-01-06T12:04:04;6.23;;;3.20;;
5167;SDS011;2603;48.918;8.980;2024-01-06T12:06:31;5.07;;;3.13;;
5167;SDS011;2603;48.918;8.980;2024-01-06T12:09:03;5.67;;;3.10;;
5167;SDS011;2603;48.918;8.980;2024-01-06T12:11:30;5.10;;;3.03;;
5167;SDS011;2603;48.918;8.980;2024-01-06T12:13:56;7.47;;;3.97;;
5167;SDS011;2603;48.918;8.980;2024-01-06T12:16:23;4.80;;;3.20;;
5167;SDS011;2603;48.918;8.980;2024-01-06T12:18:52;4.30;;;2.90;;
5167;SDS011;2603;48.918;8.980;2024-01-06T12:21:21;6.50;;;3.20;;
5167;SDS011;2603;48.918;8.980;2024-01-06T12:23:47;4.20;;;3.20;;
5167;SDS011;2603;48.918;8.980;2024-01-06T12:26:14;7.40;;;3.53;;
5167;SDS011;2603;48.918;8.980;2024-01-06T12:28:40;6.90;;;3.13;;
5167;SDS011;2603;48.918;8.980;2024-01-06T12:31:08;4.30;;;3.00;;
5167;SDS011;2603;48.918;8.980;2024-01-06T12:33:37;6.90;;;2.93;;
5167;SDS011;2603;48.918;8.980;2024-01-06T12:36:04;4.90;;;3.43;;
5167;SDS011;2603;48.918;8.980;2024-01-06T12:38:32;15.47;;;6.83;;
5167;SDS011;2603;48.918;8.980;2024-01-06T12:40:59;11.90;;;5.57;;
5167;SDS011;2603;48.918;8.980;2024-01-06T12:43:26;9.70;;;4.70;;
5167;SDS011;2603;48.918;8.980;2024-01-06T12:45:53;7.40;;;4.40;;
5167;SDS011;2603;48.918;8.980;2024-01-06T12:48:22;7.97;;;4.87;;
5167;SDS011;2603;48.918;8.980;2024-01-06T12:50:48;9.37;;;5.33;;
5167;SDS011;2603;48.918;8.980;2024-01-06T12:53:15;21.27;;;6.10;;
5167;SDS011;2603;48.918;8.980;2024-01-06T12:55:43;9.53;;;5.17;;
5167;SDS011;2603;48.918;8.980;2024-01-06T12:58:10;4.97;;;3.90;;
5167;SDS011;2603;48.918;8.980;2024-01-06T13:00:36;4.97;;;3.70;;
5167;SDS011;2603;48.918;8.980;2024-01-06T13:03:05;8.20;;;3.40;;
5167;SDS011;2603;48.918;8.980;2024-01-06T13:05:31;7.77;;;4.33;;
5167;SDS011;2603;48.918;8.980;2024-01-06T13:07:58;10.53;;;4.03;;
5167;SDS011;2603;48.918;8.980;2024-01-06T13:10:24;8.50;;;4.40;;
5167;SDS011;2603;48.918;8.980;2024-01-06T13:12:53;5.53;;;3.90;;
5167;SDS011;2603;48.918;8.980;2024-01-06T13:15:19;7.63;;;3.70;;
5167;SDS011;2603;48.918;8.980;2024-01-06T13:17:46;6.83;;;4.80;;
5167;SDS011;2603;48.918;8.980;2024-01-06T13:20:13;8.47;;;4.00;;
5167;SDS011;2603;48.918;8.980;2024-01-06T13:22:41;5.60;;;4.30;;
5167;SDS011;2603;48.918;8.980;2024-01-06T13:25:07;6.57;;;3.13;;
5167;SDS011;2603;48.918;8.980;2024-01-06T13:27:34;9.87;;;4.40;;
5167;SDS011;2603;48.918;8.980;2024-01-06T13:30:02;6.30;;;4.67;;
5167;SDS011;2603;48.918;8.980;2024-01-06T13:32:29;7.03;;;4.60;;
5167;SDS011;2603;48.918;8.980;2024-01-06T13:34:56;8.03;;;4.10;;
5167;SDS011;2603;48.918;8.980;2024-01-06T13:37:29;8.00;;;4.03;;
5167;SDS011;2603;48.918;8.980;2024-01-06T13:39:56;7.67;;;4.60;;
5167;SDS011;2603;48.918;8.980;2024-01-06T13:42:22;8.23;;;4.70;;
5167;SDS011;2603;48.918;8.980;2024-01-06T13:44:49;7.03;;;4.87;;
5167;SDS011;2603;48.918;8.980;2024-01-06T13:47:17;11.03;;;4.77;;
5167;SDS011;2603;48.918;8.980;2024-01-06T13:49:43;8.87;;;5.43;;
5167;SDS011;2603;48.918;8.980;2024-01-06T13:52:10;7.33;;;4.43;;
5167;SDS011;2603;48.918;8.980;2024-01-06T13:54:36;8.80;;;4.77;;
5167;SDS011;2603;48.918;8.980;2024-01-06T13:57:03;7.87;;;5.10;;
5167;SDS011;2603;48.918;8.980;2024-01-06T13:59:30;6.43;;;4.40;;
5167;SDS011;2603;48.918;8.980;2024-01-06T14:01:56;14.00;;;5.80;;
5167;SDS011;2603;48.918;8.980;2024-01-06T14:04:24;11.40;;;6.00;;
5167;SDS011;2603;48.918;8.980;2024-01-06T14:06:50;8.40;;;5.40;;
5167;SDS011;2603;48.918;8.980;2024-01-06T14:09:21;8.67;;;4.70;;
5167;SDS011;2603;48.918;8.980;2024-01-06T14:11:47;9.80;;;5.40;;
5167;SDS011;2603;48.918;8.980;2024-01-06T14:14:13;9.00;;;6.20;;
5167;SDS011;2603;48.918;8.980;2024-01-06T14:16:40;12.10;;;6.00;;
5167;SDS011;2603;48.918;8.980;2024-01-06T14:19:08;9.83;;;5.50;;
5167;SDS011;2603;48.918;8.980;2024-01-06T14:21:36;8.40;;;5.40;;
5167;SDS011;2603;48.918;8.980;2024-01-06T14:24:02;19.33;;;6.97;;
5167;SDS011;2603;48.918;8.980;2024-01-06T14:26:30;8.27;;;5.73;;
5167;SDS011;2603;48.918;8.980;2024-01-06T14:28:57;10.97;;;5.97;;
5167;SDS011;2603;48.918;8.980;2024-01-06T14:31:24;9.00;;;5.60;;
5167;SDS011;2603;48.918;8.980;2024-01-06T14:33:51;10.57;;;6.40;;
5167;SDS011;2603;48.918;8.980;2024-01-06T14:36:18;10.97;;;6.40;;
5167;SDS011;2603;48.918;8.980;2024-01-06T14:38:46;11.20;;;6.60;;
5167;SDS011;2603;48.918;8.980;2024-01-06T14:41:12;10.70;;;5.73;;
5167;SDS011;2603;48.918;8.980;2024-01-06T14:43:39;12.13;;;7.40;;
5167;SDS011;2603;48.918;8.980;2024-01-06T14:46:06;9.10;;;6.23;;
5167;SDS011;2603;48.918;8.980;2024-01-06T14:48:32;10.57;;;7.40;;
5167;SDS011;2603;48.918;8.980;2024-01-06T14:50:59;11.90;;;7.33;;
5167;SDS011;2603;48.918;8.980;2024-01-06T14:53:27;11.93;;;7.20;;
5167;SDS011;2603;48.918;8.980;2024-01-06T14:55:55;11.50;;;7.00;;
5167;SDS011;2603;48.918;8.980;2024-01-06T14:58:22;11.27;;;6.93;;
5167;SDS011;2603;48.918;8.980;2024-01-06T15:00:48;13.97;;;7.80;;
5167;SDS011;2603;48.918;8.980;2024-01-06T15:03:15;10.10;;;7.30;;
5167;SDS011;2603;48.918;8.980;2024-01-06T15:05:43;16.13;;;7.00;;
5167;SDS011;2603;48.918;8.980;2024-01-06T15:08:09;30.70;;;11.17;;
5167;SDS011;2603;48.918;8.980;2024-01-06T15:10:36;15.57;;;8.77;;
5167;SDS011;2603;48.918;8.980;2024-01-06T15:13:05;17.13;;;8.60;;
5167;SDS011;2603;48.918;8.980;2024-01-06T15:15:31;22.93;;;10.87;;
5167;SDS011;2603;48.918;8.980;2024-01-06T15:17:57;14.23;;;7.63;;